Time;durP1;ratioP1;P1;durP2;ratioP2;P2;SDS_P1;SDS_P2;PMS_P1;PMS_P2;Temp;Humidity;BMP_temperature;BMP_pressure;BME280_temperature;BME280_humidity;BME280_pressure;Samples;Min_cycle;Max_cycle;Signal;HPM_P1;HPM_P2
2022/12/18 00:01:18;;;;;;;12.10;5.47;;;;;;;-0.86;77.26;100697.66;5018446;28;20052;-52
2022/12/18 00:03:45;;;;;;;12.50;4.47;;;;;;;-0.84;77.37;100690.97;5018871;28;20045;-52
2022/12/18 00:06:13;;;;;;;11.27;4.95;;;;;;;-0.84;77.43;100685.88;5018119;28;20057;-50
2022/12/18 00:08:41;;;;;;;16.17;4.95;;;;;;;-0.83;77.44;100682.56;5017760;28;20050;-55
2022/12/18 00:11:11;;;;;;;13.45;6.85;;;;;;;-0.84;77.69;100680.78;5017486;28;20058;-51
2022/12/18 00:13:38;;;;;;;16.15;5.13;;;;;;;-0.87;77.77;100680.66;5017410;28;20049;-53
2022/12/18 00:16:08;;;;;;;17.92;6.50;;;;;;;-0.86;77.84;100682.38;5015262;28;20103;-55
2022/12/18 00:18:35;;;;;;;11.65;5.97;;;;;;;-0.85;78.07;100679.03;5018867;28;20549;-54
2022/12/18 00:21:05;;;;;;;17.23;6.63;;;;;;;-0.84;77.44;100672.28;5021650;28;20045;-52
2022/12/18 00:23:33;;;;;;;12.95;6.95;;;;;;;-0.85;77.61;100681.59;5017771;28;20069;-54
2022/12/18 00:26:02;;;;;;;9.98;3.88;;;;;;;-0.87;77.65;100679.75;5021020;28;20677;-51
2022/12/18 00:28:28;;;;;;;16.05;5.03;;;;;;;-0.86;77.55;100682.38;5000976;28;20497;-54
2022/12/18 00:31:05;;;;;;;11.93;5.20;;;;;;;-0.86;77.26;100689.13;5020055;28;20669;-52
2022/12/18 00:33:32;;;;;;;19.10;5.63;;;;;;;-0.88;78.01;100685.66;5020068;28;20093;-50
2022/12/18 00:36:10;;;;;;;12.52;4.80;;;;;;;-0.86;77.98;100692.56;5017395;28;20096;-53
2022/12/18 00:38:38;;;;;;;9.10;3.50;;;;;;;-0.85;77.82;100691.75;5023386;28;20077;-54
2022/12/18 00:41:07;;;;;;;14.00;5.43;;;;;;;-0.84;78.24;100685.00;5020703;28;20041;-56
2022/12/18 00:43:34;;;;;;;14.02;5.65;;;;;;;-0.84;78.17;100674.84;5035535;28;20285;-54
2022/12/18 00:46:01;;;;;;;15.23;6.60;;;;;;;-0.81;78.15;100675.88;5017522;28;20056;-53
2022/12/18 00:48:28;;;;;;;17.27;6.25;;;;;;;-0.81;78.48;100685.19;5050479;28;20669;-57
2022/12/18 00:50:55;;;;;;;16.38;7.43;;;;;;;-0.84;78.42;100680.78;5016534;28;20066;-51
2022/12/18 00:53:21;;;;;;;11.75;4.40;;;;;;;-0.86;78.83;100687.47;5019291;28;20148;-53
2022/12/18 00:55:48;;;;;;;16.75;7.07;;;;;;;-0.87;78.37;100684.84;5016853;28;20564;-50
2022/12/18 00:58:16;;;;;;;22.50;8.30;;;;;;;-0.89;78.14;100682.22;5016568;28;20137;-54
2022/12/18 01:00:43;;;;;;;17.35;6.65;;;;;;;-0.93;77.97;100670.13;5020539;28;20115;-53
2022/12/18 01:03:13;;;;;;;17.10;5.63;;;;;;;-0.96;78.06;100685.22;5017374;28;20501;-56
2022/12/18 01:05:41;;;;;;;14.25;7.15;;;;;;;-0.96;78.26;100677.59;5020220;28;20056;-54
2022/12/18 01:08:08;;;;;;;19.48;7.78;;;;;;;-0.97;78.05;100673.31;5019195;28;20073;-52
2022/12/18 01:10:34;;;;;;;16.42;6.88;;;;;;;-0.97;78.07;100678.38;5004234;28;20456;-53
2022/12/18 01:13:01;;;;;;;19.25;8.13;;;;;;;-1.02;77.79;100675.59;5002624;28;20049;-57
2022/12/18 01:15:27;;;;;;;14.38;7.45;;;;;;;-1.04;78.17;100672.94;5004731;28;20125;-53
2022/12/18 01:17:54;;;;;;;18.60;7.93;;;;;;;-1.07;77.58;100659.22;5007528;28;20136;-55
2022/12/18 01:20:20;;;;;;;17.17;7.35;;;;;;;-1.09;77.87;100664.22;5010937;28;20041;-55
2022/12/18 01:22:48;;;;;;;21.00;8.38;;;;;;;-1.11;78.18;100655.63;5002738;28;20084;-54
2022/12/18 01:25:16;;;;;;;16.42;5.55;;;;;;;-1.12;78.01;100653.88;5005018;28;20060;-51
2022/12/18 01:27:45;;;;;;;17.10;7.95;;;;;;;-1.14;78.39;100660.53;5001988;28;20152;-53
2022/12/18 01:30:13;;;;;;;21.45;7.65;;;;;;;-1.17;78.03;100656.19;5006379;28;20135;-52
2022/12/18 01:32:41;;;;;;;20.88;8.35;;;;;;;-1.19;78.13;100656.84;5002991;28;20053;-55
2022/12/18 01:35:09;;;;;;;13.73;5.15;;;;;;;-1.19;78.07;100656.84;5002609;28;20057;-54
2022/12/18 01:37:37;;;;;;;18.48;8.20;;;;;;;-1.19;78.34;100651.78;5004262;28;20038;-51
2022/12/18 01:40:07;;;;;;;21.38;6.38;;;;;;;-1.21;77.83;100648.28;5004745;28;20045;-55
2022/12/18 01:42:34;;;;;;;16.08;6.07;;;;;;;-1.24;78.10;100637.94;5000713;28;20113;-53
2022/12/18 01:47:48;;;;;;;18.95;7.13;;;;;;;-1.27;78.11;100653.03;5023469;28;20441;-51
2022/12/18 01:50:22;;;;;;;16.77;6.32;;;;;;;-1.30;77.75;100653.72;5001457;28;20046;-51
2022/12/18 01:52:55;;;;;;;18.52;7.05;;;;;;;-1.31;77.40;100650.31;4996134;28;20123;-50
2022/12/18 01:55:24;;;;;;;16.42;6.57;;;;;;;-1.32;78.00;100640.09;4997586;28;20081;-55
2022/12/18 01:57:54;;;;;;;23.20;6.20;;;;;;;-1.35;77.92;100640.75;4998012;28;20108;-54
2022/12/18 02:00:22;;;;;;;17.60;5.32;;;;;;;-1.37;77.28;100642.34;4996311;28;20682;-50
2022/12/18 02:02:49;;;;;;;21.85;6.90;;;;;;;-1.38;77.46;100635.53;5001908;28;20470;-54
2022/12/18 02:05:29;;;;;;;19.52;6.20;;;;;;;-1.38;78.17;100645.69;4999983;28;20125;-51
2022/12/18 02:08:35;;;;;;;22.27;7.50;;;;;;;-1.41;77.90;100645.53;4993657;28;20236;-55
2022/12/18 02:20:08;;;;;;;25.80;9.18;;;;;;;-1.40;77.31;100656.53;5019495;28;20410;-55
2022/12/18 02:27:50;;;;;;;20.88;6.97;;;;;;;-1.46;78.04;100663.03;5019708;28;20417;-54
2022/12/18 02:30:18;;;;;;;20.02;6.03;;;;;;;-1.47;77.95;100668.94;4994701;28;20046;-53
2022/12/18 02:32:50;;;;;;;16.45;6.35;;;;;;;-1.47;78.46;100670.59;5006005;28;20080;-50
2022/12/18 02:35:21;;;;;;;26.25;9.95;;;;;;;-1.51;77.77;100676.28;5012658;28;20561;-53
2022/12/18 02:37:49;;;;;;;24.23;6.20;;;;;;;-1.53;77.86;100670.25;5002947;28;20096;-56
2022/12/18 02:40:18;;;;;;;26.92;9.77;;;;;;;-1.54;77.83;100679.53;5014600;28;20141;-51
2022/12/18 02:42:45;;;;;;;29.92;7.18;;;;;;;-1.56;78.38;100681.97;5016412;28;20081;-55
2022/12/18 02:45:12;;;;;;;18.42;6.97;;;;;;;-1.58;78.19;100686.09;5020303;28;20086;-56
2022/12/18 02:47:42;;;;;;;27.08;7.57;;;;;;;-1.57;77.71;100689.50;5015465;28;20077;-50
2022/12/18 02:50:41;;;;;;;19.92;7.05;;;;;;;-1.58;78.15;100677.59;5014645;28;20108;-52
2022/12/18 03:06:28;;;;;;;39.95;14.32;;;;;;;-1.34;76.51;100657.78;5030894;27;20425;-52
2022/12/18 03:09:00;;;;;;;23.95;9.07;;;;;;;-1.57;77.05;100653.94;5013903;28;20077;-52
2022/12/18 03:14:23;;;;;;;25.67;9.25;;;;;;;-1.69;77.81;100643.97;5003643;28;20046;-57
2022/12/18 03:16:54;;;;;;;31.35;10.68;;;;;;;-1.71;77.43;100640.47;5022409;28;20045;-54
2022/12/18 03:19:25;;;;;;;28.40;10.60;;;;;;;-1.73;78.16;100637.84;5019882;28;20524;-52
2022/12/18 03:21:55;;;;;;;27.45;9.98;;;;;;;-1.73;77.80;100637.84;5016235;28;20555;-55
2022/12/18 03:24:24;;;;;;;26.92;8.30;;;;;;;-1.74;77.77;100640.28;5014100;28;20052;-54
2022/12/18 03:26:54;;;;;;;29.80;8.38;;;;;;;-1.75;77.67;100638.53;5016294;28;20128;-52
2022/12/18 03:29:31;;;;;;;24.77;9.43;;;;;;;-1.75;78.00;100633.47;5015655;28;20045;-52
2022/12/18 03:32:04;;;;;;;27.33;9.25;;;;;;;-1.77;77.71;100628.28;5012329;28;20038;-51
2022/12/18 03:34:34;;;;;;;21.40;10.07;;;;;;;-1.76;77.35;100626.63;5016143;28;20067;-52
2022/12/18 03:37:02;;;;;;;18.52;9.27;;;;;;;-1.77;77.96;100624.88;5012653;28;20083;-52
2022/12/18 03:39:29;;;;;;;25.35;11.32;;;;;;;-1.82;77.38;100612.78;5015187;28;20069;-55
2022/12/18 03:45:18;;;;;;;20.55;6.38;;;;;;;-1.88;77.39;100607.38;5097374;27;20409;-53
2022/12/18 03:48:00;;;;;;;20.33;8.18;;;;;;;-1.89;77.68;100603.06;5071626;28;20131;-52
2022/12/18 03:50:40;;;;;;;27.17;7.90;;;;;;;-1.89;77.80;100595.44;5072828;28;20483;-48
2022/12/18 03:53:19;;;;;;;15.60;5.57;;;;;;;-1.91;78.20;100586.88;5068906;28;20132;-53
2022/12/18 03:55:47;;;;;;;24.52;9.52;;;;;;;-1.92;77.73;100581.72;5054344;28;20081;-51
2022/12/18 03:58:19;;;;;;;24.85;9.10;;;;;;;-1.92;78.14;100580.06;5070909;28;20045;-54
2022/12/18 04:00:50;;;;;;;20.48;6.88;;;;;;;-1.90;78.35;100578.47;5053315;28;20465;-54
2022/12/18 04:03:19;;;;;;;20.70;7.25;;;;;;;-1.92;78.00;100572.44;5050400;28;20041;-52
2022/12/18 04:05:53;;;;;;;19.23;7.10;;;;;;;-1.93;78.62;100573.22;5064930;28;20137;-57
2022/12/18 04:08:21;;;;;;;23.27;7.88;;;;;;;-1.93;78.60;100578.28;5071861;28;20065;-53
2022/12/18 04:10:48;;;;;;;23.08;8.55;;;;;;;-1.94;78.64;100571.47;5072519;28;20075;-54
2022/12/18 04:13:24;;;;;;;23.27;7.30;;;;;;;-1.95;78.53;100574.81;5075005;28;20048;-56
2022/12/18 04:15:51;;;;;;;21.48;8.30;;;;;;;-1.95;78.43;100559.56;5059325;28;20045;-52
2022/12/18 04:18:17;;;;;;;23.38;8.32;;;;;;;-1.97;77.79;100543.34;5053142;28;20040;-51
2022/12/18 04:20:44;;;;;;;25.63;8.38;;;;;;;-1.96;77.95;100550.22;5058758;28;20107;-57
2022/12/18 04:23:11;;;;;;;33.33;10.55;;;;;;;-1.96;78.36;100551.06;5057022;28;20072;-50
2022/12/18 04:25:37;;;;;;;26.30;9.85;;;;;;;-1.97;77.59;100558.59;5058439;28;20520;-54
2022/12/18 04:28:04;;;;;;;33.67;8.63;;;;;;;-1.98;77.98;100556.84;5055654;28;20122;-53
2022/12/18 04:30:30;;;;;;;24.13;8.10;;;;;;;-2.00;77.67;100550.78;5051494;28;20048;-54
2022/12/18 04:32:57;;;;;;;24.15;8.48;;;;;;;-2.00;78.79;100548.25;5055267;28;20053;-52
2022/12/18 04:35:24;;;;;;;23.88;9.93;;;;;;;-1.99;78.54;100552.56;5058606;28;20068;-55
2022/12/18 04:37:50;;;;;;;28.80;8.77;;;;;;;-2.00;77.96;100545.72;5057893;28;20071;-54
2022/12/18 04:40:17;;;;;;;23.98;8.88;;;;;;;-2.03;79.02;100530.34;5056447;28;20135;-52
2022/12/18 04:42:43;;;;;;;26.23;8.30;;;;;;;-2.01;78.39;100528.75;5055517;28;20080;-54
2022/12/18 04:45:10;;;;;;;25.95;9.63;;;;;;;-2.00;78.68;100525.41;5055891;28;20048;-57
2022/12/18 04:47:37;;;;;;;20.17;8.15;;;;;;;-1.98;78.17;100523.84;5055666;28;20068;-51
2022/12/18 04:50:04;;;;;;;33.03;9.88;;;;;;;-1.99;79.05;100525.50;5055815;28;20078;-56
2022/12/18 04:52:30;;;;;;;32.53;9.13;;;;;;;-2.02;80.16;100521.94;5056869;28;20135;-55
2022/12/18 04:54:57;;;;;;;36.83;11.00;;;;;;;-2.00;79.82;100520.34;5050783;28;20037;-53
2022/12/18 04:57:24;;;;;;;24.17;8.82;;;;;;;-2.05;81.32;100516.66;5045687;28;20073;-57
2022/12/18 04:59:50;;;;;;;24.73;8.98;;;;;;;-2.05;81.59;100506.53;5037482;28;20075;-54
2022/12/18 05:02:17;;;;;;;36.33;10.93;;;;;;;-2.04;81.17;100498.09;5042370;28;20076;-57
2022/12/18 05:04:43;;;;;;;27.60;8.55;;;;;;;-2.09;81.63;100490.25;5041130;28;20045;-54
2022/12/18 05:07:10;;;;;;;30.23;10.02;;;;;;;-2.01;82.04;100472.88;5038270;28;20052;-53
2022/12/18 05:09:37;;;;;;;33.10;9.95;;;;;;;-2.04;81.99;100467.63;5040360;28;20522;-51
2022/12/18 05:12:03;;;;;;;24.42;8.05;;;;;;;-2.02;82.23;100466.06;5041153;28;20065;-51
2022/12/18 05:14:30;;;;;;;24.25;7.05;;;;;;;-1.99;81.66;100451.00;5041306;28;20091;-56
2022/12/18 05:16:56;;;;;;;32.97;8.30;;;;;;;-1.97;81.99;100460.47;5041017;28;20085;-55
2022/12/18 05:19:26;;;;;;;19.85;6.60;;;;;;;-1.99;82.33;100445.94;5042099;28;20053;-53
2022/12/18 05:21:53;;;;;;;29.05;8.50;;;;;;;-2.02;83.46;100445.75;5042081;28;20563;-58
2022/12/18 05:24:19;;;;;;;29.67;9.18;;;;;;;-1.97;83.12;100434.19;5036332;28;20127;-55
2022/12/18 05:26:46;;;;;;;26.70;8.13;;;;;;;-2.00;83.28;100429.81;5041228;28;20171;-54
2022/12/18 05:29:13;;;;;;;17.55;5.30;;;;;;;-2.00;83.11;100434.00;5040898;28;20072;-53
2022/12/18 05:31:39;;;;;;;40.70;11.40;;;;;;;-1.90;83.18;100436.28;5042486;28;20136;-53
2022/12/18 05:34:08;;;;;;;25.25;7.28;;;;;;;-1.98;83.63;100447.69;5040475;28;20059;-56
2022/12/18 05:36:36;;;;;;;27.75;8.85;;;;;;;-2.05;84.00;100435.44;5038217;28;20103;-53
2022/12/18 05:39:03;;;;;;;32.33;9.00;;;;;;;-2.03;83.81;100434.72;5036657;28;20136;-51
2022/12/18 05:41:29;;;;;;;26.75;8.30;;;;;;;-2.09;84.01;100435.25;5039175;28;20573;-52
2022/12/18 05:43:56;;;;;;;21.35;7.60;;;;;;;-2.10;84.23;100440.25;5038440;28;20048;-51
2022/12/18 05:46:24;;;;;;;26.02;7.70;;;;;;;-2.09;83.54;100445.41;5041877;28;20084;-55
2022/12/18 05:48:51;;;;;;;25.45;7.28;;;;;;;-2.10;83.89;100451.28;5041235;28;20140;-56
2022/12/18 05:51:20;;;;;;;22.85;7.93;;;;;;;-2.08;83.58;100457.34;5039320;28;20621;-53
2022/12/18 05:53:48;;;;;;;26.60;8.70;;;;;;;-2.05;83.98;100450.66;5037712;28;20053;-51
2022/12/18 05:56:17;;;;;;;18.02;5.45;;;;;;;-2.04;83.43;100447.34;5039940;28;20076;-53
2022/12/18 05:58:44;;;;;;;32.92;8.55;;;;;;;-2.02;83.71;100439.03;5040875;28;20092;-57
2022/12/18 06:01:15;;;;;;;14.48;5.72;;;;;;;-1.98;83.01;100432.44;5038861;28;20441;-54
2022/12/18 06:03:42;;;;;;;13.77;5.40;;;;;;;-1.96;83.41;100441.03;5039024;28;20047;-50
2022/12/18 06:06:19;;;;;;;23.15;6.80;;;;;;;-1.96;83.63;100441.88;5038010;28;20050;-53
2022/12/18 06:08:46;;;;;;;20.90;7.78;;;;;;;-1.92;82.64;100442.94;5036453;28;20049;-51
2022/12/18 06:11:16;;;;;;;19.50;8.23;;;;;;;-1.89;83.22;100435.47;5033828;28;20048;-56
2022/12/18 06:13:43;;;;;;;20.08;7.47;;;;;;;-1.83;82.18;100428.19;5042954;28;20064;-56
2022/12/18 06:16:10;;;;;;;23.70;7.35;;;;;;;-1.83;82.92;100423.13;5060591;28;20605;-56
2022/12/18 06:18:37;;;;;;;27.20;8.27;;;;;;;-1.87;83.59;100408.50;5057724;28;20044;-57
2022/12/18 06:21:03;;;;;;;15.70;5.65;;;;;;;-1.82;82.75;100399.47;5051494;28;20107;-54
2022/12/18 06:23:30;;;;;;;19.73;5.97;;;;;;;-1.78;82.88;100409.78;5033232;28;21224;-54
2022/12/18 06:25:57;;;;;;;16.65;5.97;;;;;;;-1.76;82.62;100413.31;5037157;28;20083;-55
2022/12/18 06:28:23;;;;;;;21.95;7.47;;;;;;;-1.78;82.88;100404.72;5040520;28;20116;-55
2022/12/18 06:30:50;;;;;;;15.25;5.07;;;;;;;-1.77;83.50;100403.91;5040244;28;20041;-50
2022/12/18 06:33:17;;;;;;;22.27;6.28;;;;;;;-1.74;83.60;100393.91;5042498;28;20061;-52
2022/12/18 06:35:44;;;;;;;17.30;6.65;;;;;;;-1.69;83.31;100392.53;5050222;28;20086;-51
2022/12/18 06:38:10;;;;;;;18.13;6.72;;;;;;;-1.67;82.73;100390.91;5059945;28;20141;-55
2022/12/18 06:40:38;;;;;;;20.08;6.35;;;;;;;-1.68;82.66;100409.50;5043886;28;20044;-54
2022/12/18 06:43:06;;;;;;;18.05;5.57;;;;;;;-1.63;83.13;100402.97;5058290;28;20134;-53
2022/12/18 06:45:32;;;;;;;20.40;6.60;;;;;;;-1.63;83.56;100412.25;5047581;28;20045;-55
2022/12/18 06:47:59;;;;;;;14.10;5.60;;;;;;;-1.62;83.47;100419.97;5038401;28;20051;-52
2022/12/18 06:50:26;;;;;;;15.75;4.78;;;;;;;-1.59;82.42;100422.66;5039128;28;20041;-56
2022/12/18 06:52:52;;;;;;;17.30;5.60;;;;;;;-1.55;83.13;100414.41;5037991;28;20111;-53
2022/12/18 06:55:19;;;;;;;18.20;5.78;;;;;;;-1.53;82.82;100416.19;5041720;28;20044;-57
2022/12/18 06:57:45;;;;;;;17.80;6.45;;;;;;;-1.52;82.97;100402.69;5061427;28;20836;-52
2022/12/18 07:00:13;;;;;;;15.20;5.25;;;;;;;-1.53;82.55;100400.94;5060783;28;20072;-52
2022/12/18 07:02:40;;;;;;;15.82;4.63;;;;;;;-1.53;82.39;100389.09;5054816;28;20409;-56
2022/12/18 07:05:07;;;;;;;16.48;5.43;;;;;;;-1.55;82.96;100406.78;5046340;28;20052;-52
2022/12/18 07:07:36;;;;;;;18.40;6.53;;;;;;;-1.50;82.04;100393.44;5054051;28;21421;-57
2022/12/18 07:10:04;;;;;;;15.85;6.10;;;;;;;-1.50;82.45;100385.84;5047690;28;20063;-55
2022/12/18 07:12:30;;;;;;;24.20;7.80;;;;;;;-1.45;82.03;100389.50;5053134;28;20168;-54
2022/12/18 07:14:57;;;;;;;17.38;5.22;;;;;;;-1.51;82.18;100379.91;5053193;28;20059;-58
2022/12/18 07:17:23;;;;;;;13.57;4.97;;;;;;;-1.50;81.94;100383.28;5046030;28;20179;-55
2022/12/18 07:19:50;;;;;;;13.43;4.50;;;;;;;-1.48;82.56;100363.94;5057555;28;20048;-56
2022/12/18 07:22:16;;;;;;;16.98;6.75;;;;;;;-1.44;82.42;100348.03;5044076;28;20080;-53
2022/12/18 07:24:43;;;;;;;25.48;7.82;;;;;;;-1.45;82.62;100337.00;5053878;28;20191;-53
2022/12/18 07:27:10;;;;;;;22.77;6.00;;;;;;;-1.46;82.80;100347.06;5046639;28;20040;-54
2022/12/18 07:29:36;;;;;;;22.83;6.75;;;;;;;-1.44;82.73;100340.41;5038495;28;20148;-54
2022/12/18 07:32:03;;;;;;;22.02;6.82;;;;;;;-1.43;82.82;100337.06;5037205;28;20091;-51
2022/12/18 07:34:30;;;;;;;20.75;6.35;;;;;;;-1.42;82.37;100343.91;5044402;28;20450;-54
2022/12/18 07:36:57;;;;;;;22.30;7.75;;;;;;;-1.39;82.13;100354.22;5035067;28;20044;-54
2022/12/18 07:39:23;;;;;;;17.25;6.22;;;;;;;-1.39;82.75;100350.81;5052732;28;20068;-56
2022/12/18 07:44:37;;;;;;;23.95;7.35;;;;;;;-1.36;82.73;100350.97;5055858;28;20130;-55
2022/12/18 07:47:03;;;;;;;21.70;6.70;;;;;;;-1.34;82.63;100347.72;5039188;28;20076;-50
2022/12/18 07:49:37;;;;;;;14.30;4.65;;;;;;;-1.37;82.38;100346.69;5040828;28;20049;-53
2022/12/18 07:52:04;;;;;;;16.63;5.00;;;;;;;-1.33;82.40;100363.81;5055344;28;20060;-54
2022/12/18 07:54:30;;;;;;;14.23;5.72;;;;;;;-1.30;82.03;100364.00;5042446;28;20040;-54
2022/12/18 07:56:57;;;;;;;19.02;6.10;;;;;;;-1.27;82.38;100364.16;5036768;28;20547;-53
2022/12/18 07:59:23;;;;;;;24.42;6.25;;;;;;;-1.24;82.46;100373.59;5039216;28;20496;-53
2022/12/18 08:01:50;;;;;;;17.00;6.15;;;;;;;-1.20;81.75;100380.56;5039600;28;20441;-55
2022/12/18 08:04:17;;;;;;;17.98;6.88;;;;;;;-1.21;82.21;100389.00;5037690;28;20049;-52
2022/12/18 08:06:43;;;;;;;26.00;7.60;;;;;;;-1.15;81.99;100378.28;5035403;28;20441;-57
2022/12/18 08:09:14;;;;;;;12.77;4.35;;;;;;;-1.17;82.22;100375.66;5040609;28;20144;-51
2022/12/18 08:11:40;;;;;;;17.17;5.35;;;;;;;-1.18;82.45;100366.28;5037255;28;20156;-55
2022/12/18 08:14:07;;;;;;;13.70;5.40;;;;;;;-1.21;82.68;100371.22;5038025;28;20041;-52
2022/12/18 08:16:33;;;;;;;18.98;6.05;;;;;;;-1.20;82.68;100370.41;5033518;28;20057;-51
2022/12/18 08:19:00;;;;;;;19.90;6.00;;;;;;;-1.18;82.57;100363.75;5040177;28;20645;-50
2022/12/18 08:21:29;;;;;;;18.25;6.00;;;;;;;-1.16;82.38;100372.31;5038373;28;20232;-55
2022/12/18 08:23:59;;;;;;;18.75;7.05;;;;;;;-1.19;82.42;100372.16;5038255;28;20080;-48
2022/12/18 08:26:29;;;;;;;23.73;6.50;;;;;;;-1.13;82.50;100376.66;5034596;28;20080;-52
2022/12/18 08:28:57;;;;;;;20.90;7.10;;;;;;;-1.13;82.39;100361.41;5033126;28;20064;-54
2022/12/18 08:31:24;;;;;;;17.55;5.68;;;;;;;-1.13;82.54;100367.38;5034588;28;20132;-54
2022/12/18 08:33:52;;;;;;;18.10;5.60;;;;;;;-1.21;83.10;100358.50;5037504;28;20141;-55
2022/12/18 08:36:21;;;;;;;18.35;6.85;;;;;;;-1.13;82.61;100371.56;5040581;28;20598;-53
2022/12/18 08:38:48;;;;;;;26.70;8.35;;;;;;;-1.04;82.64;100366.97;5038344;28;20080;-50
2022/12/18 08:41:16;;;;;;;20.17;6.28;;;;;;;-1.06;82.74;100377.06;5043057;28;20720;-56
2022/12/18 08:46:39;;;;;;;16.27;5.97;;;;;;;-1.00;82.65;100365.44;5040183;28;20572;-52
2022/12/18 08:49:07;;;;;;;20.25;7.43;;;;;;;-0.97;82.83;100351.22;5040627;28;20131;-55
2022/12/18 08:51:34;;;;;;;22.73;7.68;;;;;;;-0.95;82.32;100325.88;5041344;28;20621;-50
2022/12/18 08:54:01;;;;;;;25.48;7.85;;;;;;;-0.91;82.63;100332.84;5036819;28;20061;-52
2022/12/18 08:56:30;;;;;;;19.63;7.40;;;;;;;-0.98;83.24;100346.06;5040338;28;20091;-55
2022/12/18 08:58:57;;;;;;;22.55;7.30;;;;;;;-0.90;82.66;100321.88;5040186;28;20048;-57
2022/12/18 09:01:24;;;;;;;16.98;7.30;;;;;;;-0.88;82.73;100307.53;5036664;28;20057;-48
2022/12/18 09:03:51;;;;;;;26.05;8.48;;;;;;;-0.83;82.54;100315.41;5039304;28;20052;-52
2022/12/18 09:06:19;;;;;;;18.40;6.60;;;;;;;-0.75;82.27;100308.16;5036673;28;20133;-50
2022/12/18 09:08:46;;;;;;;13.25;6.13;;;;;;;-0.75;82.32;100295.44;5041828;28;20048;-52
2022/12/18 09:11:20;;;;;;;17.35;6.60;;;;;;;-0.76;82.40;100326.72;5047934;28;20041;-53
2022/12/18 09:13:46;;;;;;;23.80;8.50;;;;;;;-0.65;82.06;100300.13;5040363;28;20553;-59
2022/12/18 09:16:13;;;;;;;17.00;5.97;;;;;;;-0.62;81.96;100312.13;5009167;28;20053;-54
2022/12/18 09:18:40;;;;;;;20.52;7.85;;;;;;;-0.58;81.91;100297.06;5013725;28;20139;-53
2022/12/18 09:21:12;;;;;;;19.25;7.70;;;;;;;-0.57;81.59;100296.28;5015602;28;20501;-55
2022/12/18 09:23:38;;;;;;;21.90;6.10;;;;;;;-0.61;82.45;100296.94;5012306;28;20239;-53
2022/12/18 09:26:05;;;;;;;24.70;8.68;;;;;;;-0.57;81.81;100278.47;5019534;28;20049;-58
2022/12/18 09:28:32;;;;;;;18.80;5.63;;;;;;;-0.59;82.63;100274.09;5018142;28;20634;-53
2022/12/18 09:31:03;;;;;;;18.10;6.60;;;;;;;-0.60;82.38;100313.97;5020536;28;20180;-54
2022/12/18 09:33:29;;;;;;;14.13;4.65;;;;;;;-0.50;82.10;100311.84;5029784;28;20053;-53
2022/12/18 09:35:56;;;;;;;16.75;6.80;;;;;;;-0.49;82.09;100305.94;5037748;28;20045;-54
2022/12/18 09:38:23;;;;;;;28.02;7.70;;;;;;;-0.41;81.97;100304.59;5054488;28;20063;-54
2022/12/18 09:40:53;;;;;;;18.90;6.70;;;;;;;-0.37;81.72;100293.78;5062917;28;20139;-51
2022/12/18 09:43:29;;;;;;;18.42;6.13;;;;;;;-0.35;82.04;100294.72;5062936;28;20143;-54
2022/12/18 09:46:02;;;;;;;19.70;7.60;;;;;;;-0.32;81.76;100294.00;5059375;28;20040;-55
2022/12/18 09:48:34;;;;;;;16.73;7.05;;;;;;;-0.30;81.78;100293.25;5051343;28;20064;-55
2022/12/18 09:51:13;;;;;;;16.80;5.20;;;;;;;-0.30;81.87;100300.88;5036790;28;20168;-53
2022/12/18 09:53:42;;;;;;;17.02;5.00;;;;;;;-0.31;81.98;100294.06;5034383;28;20072;-53
2022/12/18 09:56:16;;;;;;;15.60;5.82;;;;;;;-0.28;81.96;100291.66;5038759;28;20107;-48
2022/12/18 09:58:53;;;;;;;16.25;6.47;;;;;;;-0.31;81.99;100280.44;5038057;28;20092;-53
2022/12/18 10:01:22;;;;;;;15.75;6.30;;;;;;;-0.36;82.39;100272.63;5033033;28;20150;-58
2022/12/18 10:03:51;;;;;;;21.27;9.40;;;;;;;-0.28;82.05;100265.31;5041925;28;20087;-51
2022/12/18 10:09:28;;;;;;;22.67;8.07;;;;;;;-0.28;81.92;100250.94;4999430;27;20422;-55
2022/12/18 10:20:29;;;;;;;23.52;9.02;;;;;;;-0.09;81.81;100227.94;5021456;28;20411;-59
2022/12/18 10:25:51;;;;;;;16.70;6.25;;;;;;;-0.20;82.22;100207.97;5027452;28;20408;-50
2022/12/18 10:28:19;;;;;;;17.33;6.93;;;;;;;-0.20;82.85;100202.03;4978287;28;20626;-55
2022/12/18 10:30:46;;;;;;;16.45;5.38;;;;;;;-0.19;82.66;100196.13;4994932;28;20083;-54
2022/12/18 10:33:17;;;;;;;17.95;7.50;;;;;;;-0.19;82.44;100189.38;4996035;28;20140;-53
2022/12/18 10:35:45;;;;;;;22.23;7.82;;;;;;;-0.23;82.49;100186.63;4989906;28;20098;-50
2022/12/18 10:43:33;;;;;;;16.90;6.82;;;;;;;-0.19;82.55;100176.63;5051630;28;20409;-53
2022/12/18 10:46:11;;;;;;;18.50;7.60;;;;;;;-0.22;83.33;100165.44;5005428;28;20981;-49
2022/12/18 10:51:33;;;;;;;33.53;11.80;;;;;;;0.05;82.72;100147.03;5025891;27;20416;-54
2022/12/18 10:54:04;;;;;;;23.90;10.00;;;;;;;-0.08;82.63;100146.53;5017263;28;20074;-55
2022/12/18 10:56:35;;;;;;;23.08;10.02;;;;;;;-0.09;82.30;100159.19;5016156;28;20518;-50
2022/12/18 10:59:06;;;;;;;21.88;6.88;;;;;;;-0.07;82.74;100150.81;5004091;28;20140;-56
2022/12/18 11:04:28;;;;;;;19.52;6.75;;;;;;;-0.05;82.90;100126.28;5051611;28;20404;-57
2022/12/18 11:07:08;;;;;;;25.17;8.27;;;;;;;-0.07;83.07;100117.72;5016360;28;20133;-54
2022/12/18 11:09:37;;;;;;;14.38;5.05;;;;;;;-0.07;82.91;100102.44;5017040;28;20132;-56
2022/12/18 11:12:14;;;;;;;17.35;6.10;;;;;;;-0.04;82.74;100097.47;5013004;28;20059;-51
2022/12/18 11:17:22;;;;;;;19.88;7.65;;;;;;;-0.03;83.17;100094.09;5044192;27;20956;-57
2022/12/18 11:19:54;;;;;;;18.65;6.57;;;;;;;0.01;82.71;100089.16;4997056;28;20470;-58
2022/12/18 11:22:27;;;;;;;20.23;8.60;;;;;;;0.04;82.84;100085.06;4998128;28;20559;-51
2022/12/18 11:27:33;;;;;;;23.88;10.18;;;;;;;0.02;83.11;100066.28;5094632;27;20392;-59
2022/12/18 11:30:20;;;;;;;18.23;7.00;;;;;;;0.04;82.38;100063.81;5049902;28;20053;-57
2022/12/18 11:32:50;;;;;;;14.20;6.60;;;;;;;-0.01;83.16;100051.75;5059359;28;20085;-57
2022/12/18 11:35:23;;;;;;;18.42;8.27;;;;;;;-0.01;82.88;100054.31;5022774;28;20045;-55
2022/12/18 11:37:57;;;;;;;20.15;9.73;;;;;;;-0.02;82.93;100034.75;5045274;28;20053;-56
2022/12/18 11:40:34;;;;;;;27.92;8.60;;;;;;;0.00;83.04;100037.38;5043059;28;20057;-55
2022/12/18 11:45:51;;;;;;;19.27;6.68;;;;;;;-0.02;83.42;100024.56;5047880;28;20892;-59
2022/12/18 11:51:02;;;;;;;16.52;7.85;;;;;;;-0.03;83.45;100012.63;5046072;27;20412;-57
2022/12/18 11:53:30;;;;;;;26.98;10.32;;;;;;;0.01;83.25;100000.00;5021250;28;20136;-59
2022/12/18 11:56:34;;;;;;;21.42;9.93;;;;;;;0.01;83.07;100008.53;5022538;28;20131;-60
2022/12/18 12:13:21;;;;;;;23.17;7.97;;;;;;;0.02;83.44;99978.81;5082248;27;20397;-59
2022/12/18 12:21:33;;;;;;;20.70;5.72;;;;;;;0.02;83.91;99959.31;5018838;27;22186;-57
2022/12/18 12:35:17;;;;;;;20.73;8.68;;;;;;;0.24;83.43;99915.16;5046585;28;20968;-56
2022/12/18 12:40:25;;;;;;;16.08;6.18;;;;;;;0.24;84.08;99892.22;5117359;27;20887;-52
2022/12/18 12:46:02;;;;;;;20.50;6.28;;;;;;;0.23;83.33;99872.66;5082533;27;20402;-52
2022/12/18 12:51:16;;;;;;;22.40;9.05;;;;;;;0.23;84.37;99862.47;5062712;27;20410;-54
2022/12/18 12:53:42;;;;;;;16.95;6.82;;;;;;;0.27;83.47;99862.59;5028311;28;20096;-57
2022/12/18 12:56:13;;;;;;;18.42;7.03;;;;;;;0.28;83.81;99859.22;5029689;28;20072;-59
2022/12/18 13:04:10;;;;;;;14.32;7.30;;;;;;;0.37;83.50;99867.19;5057205;28;20396;-55
2022/12/18 13:07:01;;;;;;;26.70;8.65;;;;;;;0.38;83.59;99853.66;5013500;28;20482;-56
2022/12/18 13:09:32;;;;;;;15.82;7.85;;;;;;;0.38;83.69;99849.41;5013913;28;20057;-58
2022/12/18 13:15:22;;;;;;;19.05;8.15;;;;;;;0.36;83.94;99838.31;4997960;28;20058;-55
2022/12/18 13:17:49;;;;;;;23.30;8.80;;;;;;;0.38;84.11;99830.72;5001770;28;20137;-58
2022/12/18 13:20:16;;;;;;;20.92;9.80;;;;;;;0.42;83.79;99841.88;4998628;28;20046;-55
2022/12/18 13:25:37;;;;;;;16.58;8.18;;;;;;;0.46;83.62;99839.50;5085595;27;20879;-56
2022/12/18 13:31:01;;;;;;;24.08;7.45;;;;;;;0.48;83.59;99827.66;5071513;28;20415;-57
2022/12/18 13:36:27;;;;;;;22.58;7.35;;;;;;;0.55;84.48;99807.50;5024314;27;20925;-57
2022/12/18 13:44:35;;;;;;;24.77;9.45;;;;;;;0.59;84.52;99789.81;5059847;27;20752;-56
2022/12/18 13:50:24;;;;;;;18.25;7.97;;;;;;;0.59;84.28;99768.53;5110213;27;20396;-59
2022/12/18 13:52:57;;;;;;;19.77;9.40;;;;;;;0.61;84.57;99757.59;5088311;28;20058;-60